createdAt,value
2023-02-01T00:00:35.565Z,21.43
2023-02-01T00:02:41.141Z,20.57
2023-02-01T00:04:46.049Z,15.83
2023-02-01T00:06:48.391Z,13.63
2023-02-01T00:08:53.429Z,11.87
2023-02-01T00:11:10.084Z,12.73
2023-02-01T00:13:12.329Z,14.40
2023-02-01T00:15:14.519Z,15.20
2023-02-01T00:17:16.602Z,16.10
2023-02-01T00:19:18.744Z,10.73
2023-02-01T00:21:23.841Z,9.43
2023-02-01T00:23:25.931Z,7.47
2023-02-01T00:25:28.082Z,6.73
2023-02-01T00:27:30.185Z,9.13
2023-02-01T00:29:32.365Z,12.20
2023-02-01T00:31:34.801Z,10.57
2023-02-01T00:33:37.023Z,11.87
2023-02-01T00:35:41.891Z,10.97
2023-02-01T00:37:44.073Z,11.57
2023-02-01T00:39:46.267Z,9.30
2023-02-01T00:41:49.036Z,11.10
2023-02-01T00:43:52.032Z,11.90
2023-02-01T00:45:54.107Z,12.97
2023-02-01T00:47:56.088Z,12.00
2023-02-01T00:49:58.251Z,11.47
2023-02-01T00:52:00.479Z,12.60
2023-02-01T00:54:02.795Z,11.23
2023-02-01T00:56:06.426Z,9.93
2023-02-01T00:58:10.463Z,12.20
2023-02-01T01:00:13.108Z,11.07
2023-02-01T01:02:15.463Z,18.53
2023-02-01T01:04:18.026Z,22.30
2023-02-01T01:06:26.324Z,22.63
2023-02-01T01:08:28.671Z,18.80
2023-02-01T01:10:31.669Z,25.83
2023-02-01T01:12:36.746Z,21.97
2023-02-01T01:14:39.114Z,17.03
2023-02-01T01:16:41.763Z,13.37
2023-02-01T01:18:44.176Z,14.27
2023-02-01T01:20:46.196Z,18.23
2023-02-01T01:22:52.351Z,15.70
2023-02-01T01:24:54.486Z,18.77
2023-02-01T01:26:57.006Z,25.07
2023-02-01T01:29:00.333Z,32.07
2023-02-01T01:31:02.578Z,33.37
2023-02-01T01:33:04.740Z,36.63
2023-02-01T01:35:07.674Z,37.03
2023-02-01T01:37:10.047Z,26.60
2023-02-01T01:39:12.541Z,32.87
2023-02-01T01:41:18.371Z,36.23
2023-02-01T01:43:23.684Z,30.10
2023-02-01T01:45:34.192Z,25.20
2023-02-01T01:47:41.107Z,21.27
2023-02-01T01:49:43.787Z,15.23
2023-02-01T01:51:53.185Z,16.63
2023-02-01T01:54:09.361Z,13.80
2023-02-01T01:56:12.801Z,17.13
2023-02-01T01:58:22.280Z,21.90
2023-02-01T02:00:27.138Z,19.43
2023-02-01T02:02:31.698Z,18.10
2023-02-01T02:04:35.680Z,17.00
2023-02-01T02:06:43.149Z,30.67
2023-02-01T02:08:45.452Z,36.67
2023-02-01T02:11:01.380Z,41.03
2023-02-01T02:13:03.567Z,42.47
2023-02-01T02:15:07.704Z,51.30
2023-02-01T02:17:15.691Z,34.83
2023-02-01T02:19:20.425Z,25.20
2023-02-01T02:21:44.513Z,38.40
2023-02-01T02:24:10.013Z,44.70
2023-02-01T02:26:37.246Z,103.57
2023-02-01T02:29:06.935Z,121.77
2023-02-01T02:31:27.284Z,117.87
2023-02-01T02:34:00.083Z,67.07
2023-02-01T02:36:10.236Z,29.83
2023-02-01T02:38:30.950Z,29.83
2023-02-01T02:40:56.302Z,18.77
2023-02-01T02:43:35.796Z,16.80
2023-02-01T02:46:14.719Z,11.43
2023-02-01T02:48:25.660Z,12.80
2023-02-01T02:50:52.744Z,16.27
2023-02-01T02:53:47.269Z,15.57
2023-02-01T02:56:14.199Z,15.43
2023-02-01T02:58:36.016Z,17.07
2023-02-01T03:00:57.823Z,15.53
2023-02-01T03:03:18.798Z,29.50
2023-02-01T03:05:22.153Z,21.93
2023-02-01T03:07:59.384Z,19.63
2023-02-01T03:10:06.761Z,12.43
2023-02-01T03:12:34.737Z,11.83
2023-02-01T03:14:39.805Z,13.47
2023-02-01T03:16:50.812Z,16.00
2023-02-01T03:19:01.878Z,15.93
2023-02-01T03:21:10.911Z,16.23
2023-02-01T03:23:17.301Z,19.47
2023-02-01T03:25:26.766Z,23.17
2023-02-01T03:27:41.953Z,22.10
2023-02-01T03:29:55.628Z,26.13
2023-02-01T03:31:58.034Z,20.47
2023-02-01T03:34:00.338Z,18.77
2023-02-01T03:36:11.685Z,16.13
2023-02-01T03:38:25.659Z,12.57
2023-02-01T03:40:31.795Z,14.47
2023-02-01T03:42:47.596Z,13.07
2023-02-01T03:44:58.270Z,18.27
2023-02-01T03:47:10.322Z,16.70
2023-02-01T03:49:19.764Z,18.70
2023-02-01T03:51:23.343Z,25.23
2023-02-01T03:53:27.981Z,20.80
2023-02-01T03:55:32.806Z,13.30
2023-02-01T03:57:39.195Z,8.53
2023-02-01T03:59:43.421Z,12.33
2023-02-01T04:01:45.600Z,10.40
2023-02-01T04:03:48.024Z,11.50
2023-02-01T04:05:51.518Z,8.10
2023-02-01T04:07:55.461Z,9.13
2023-02-01T04:09:57.403Z,8.27
2023-02-01T04:11:59.574Z,8.20
2023-02-01T04:14:05.556Z,9.87
2023-02-01T04:16:07.618Z,8.53
2023-02-01T04:18:09.702Z,7.63
2023-02-01T04:20:12.508Z,6.40
2023-02-01T04:24:15.663Z,7.97
2023-02-01T04:26:18.217Z,7.10
2023-02-01T04:28:20.456Z,7.70
2023-02-01T04:30:24.805Z,6.93
2023-02-01T04:32:29.242Z,6.93
2023-02-01T04:34:31.468Z,12.43
2023-02-01T04:36:33.891Z,8.67
2023-02-01T04:38:36.011Z,6.20
2023-02-01T04:40:38.928Z,5.40
2023-02-01T04:42:41.126Z,6.37
2023-02-01T04:44:43.649Z,7.37
2023-02-01T04:46:47.516Z,11.20
2023-02-01T04:48:49.663Z,7.80
2023-02-01T04:50:52.379Z,7.10
2023-02-01T04:52:54.544Z,10.80
2023-02-01T04:54:59.395Z,13.37
2023-02-01T04:57:01.479Z,10.00
2023-02-01T04:59:04.131Z,17.97
2023-02-01T05:01:07.376Z,17.13
2023-02-01T05:03:09.602Z,16.30
2023-02-01T05:05:11.551Z,18.07
2023-02-01T05:07:14.006Z,22.97
2023-02-01T05:09:16.113Z,21.60
2023-02-01T05:11:36.339Z,20.60
2023-02-01T05:13:50.319Z,19.60
2023-02-01T05:15:52.883Z,21.33
2023-02-01T05:17:54.956Z,22.00
2023-02-01T05:19:57.197Z,27.07
2023-02-01T05:21:59.470Z,23.83
2023-02-01T05:24:10.617Z,28.83
2023-02-01T05:26:12.746Z,32.07
2023-02-01T05:28:15.615Z,34.77
2023-02-01T05:30:17.975Z,35.33
2023-02-01T05:32:22.681Z,37.10
2023-02-01T05:34:25.388Z,43.00
2023-02-01T05:36:27.653Z,31.70
2023-02-01T05:38:30.875Z,55.13
2023-02-01T05:40:36.026Z,57.97
2023-02-01T05:42:42.422Z,44.17
2023-02-01T05:44:44.792Z,37.10
2023-02-01T05:46:48.540Z,31.53
2023-02-01T05:48:51.815Z,36.07
2023-02-01T05:50:54.513Z,33.60
2023-02-01T05:52:56.693Z,27.23
2023-02-01T05:54:58.913Z,21.10
2023-02-01T05:57:01.012Z,18.73
2023-02-01T06:01:05.098Z,122.97
2023-02-01T06:03:07.487Z,121.70
2023-02-01T06:05:09.932Z,114.50
2023-02-01T06:07:12.571Z,157.37
2023-02-01T06:09:14.826Z,162.70
2023-02-01T06:11:30.556Z,108.33
2023-02-01T06:13:34.916Z,54.13
2023-02-01T06:15:40.294Z,42.80
2023-02-01T06:17:44.312Z,38.77
2023-02-01T06:19:46.443Z,34.67
2023-02-01T06:21:48.620Z,27.53
2023-02-01T06:23:52.674Z,23.20
2023-02-01T06:26:03.548Z,21.93
2023-02-01T06:28:07.030Z,24.23
2023-02-01T06:30:09.740Z,19.17
2023-02-01T06:32:11.757Z,15.43
2023-02-01T06:34:14.230Z,17.00
2023-02-01T06:36:21.999Z,14.40
2023-02-01T06:38:24.617Z,15.67
2023-02-01T06:40:26.677Z,15.80
2023-02-01T06:42:28.643Z,17.43
2023-02-01T06:44:30.926Z,14.87
2023-02-01T06:46:33.028Z,15.03
2023-02-01T06:48:35.800Z,11.70
2023-02-01T06:50:37.810Z,10.63
2023-02-01T06:52:39.877Z,12.57
2023-02-01T06:54:44.741Z,11.30
2023-02-01T06:56:46.712Z,9.97
2023-02-01T06:58:49.500Z,11.20
2023-02-01T07:00:51.720Z,15.17
2023-02-01T07:02:53.991Z,12.83
2023-02-01T07:04:56.060Z,11.17
2023-02-01T07:06:58.296Z,10.57
2023-02-01T07:09:01.576Z,10.33
2023-02-01T07:11:05.424Z,12.13
2023-02-01T07:13:07.395Z,11.83
2023-02-01T07:15:09.834Z,16.03
2023-02-01T07:17:11.784Z,15.57
2023-02-01T07:19:14.423Z,15.40
2023-02-01T07:21:16.548Z,17.43
2023-02-01T07:23:18.922Z,22.00
2023-02-01T07:25:20.879Z,27.90
2023-02-01T07:27:25.981Z,28.90
2023-02-01T07:29:27.896Z,35.37
2023-02-01T07:31:30.184Z,31.17
2023-02-01T07:33:32.187Z,33.13
2023-02-01T07:35:34.702Z,29.97
2023-02-01T07:37:36.728Z,42.30
2023-02-01T07:39:38.711Z,50.97
2023-02-01T07:41:40.666Z,61.10
2023-02-01T07:43:42.672Z,44.93
2023-02-01T07:45:51.441Z,46.07
2023-02-01T07:47:54.698Z,37.87
2023-02-01T07:49:56.596Z,26.40
2023-02-01T07:51:58.632Z,23.97
2023-02-01T07:54:00.532Z,22.47
2023-02-01T07:56:03.322Z,29.40
2023-02-01T07:58:05.330Z,41.20
2023-02-01T08:00:26.417Z,33.30
2023-02-01T08:02:28.503Z,38.03
2023-02-01T08:04:30.610Z,42.57
2023-02-01T08:06:35.799Z,42.47
2023-02-01T08:08:37.904Z,45.03
2023-02-01T08:10:39.892Z,45.43
2023-02-01T08:12:48.843Z,37.10
2023-02-01T08:14:50.850Z,39.07
2023-02-01T08:16:52.754Z,33.63
2023-02-01T08:18:56.058Z,26.67
2023-02-01T08:20:58.462Z,24.17
2023-02-01T08:23:00.430Z,26.57
2023-02-01T08:25:02.595Z,28.30
2023-02-01T08:27:05.137Z,25.47
2023-02-01T08:29:08.691Z,22.27
2023-02-01T08:31:16.199Z,21.67
2023-02-01T08:33:18.065Z,17.63
2023-02-01T08:35:21.198Z,16.37
2023-02-01T08:37:24.289Z,14.97
2023-02-01T08:39:26.845Z,14.77
2023-02-01T08:41:30.885Z,19.33
2023-02-01T08:43:32.958Z,20.63
2023-02-01T08:45:35.452Z,17.83
2023-02-01T08:47:37.442Z,24.03
2023-02-01T08:49:39.375Z,44.60
2023-02-01T08:51:41.324Z,69.40
2023-02-01T08:53:43.743Z,62.30
2023-02-01T08:55:47.903Z,40.43
2023-02-01T08:57:50.017Z,28.30
2023-02-01T08:59:52.193Z,21.60
2023-02-01T09:01:54.094Z,15.70
2023-02-01T09:03:56.061Z,10.83
2023-02-01T09:06:06.863Z,13.33
2023-02-01T09:08:08.925Z,10.60
2023-02-01T09:10:11.587Z,10.20
2023-02-01T09:12:13.485Z,11.47
2023-02-01T09:14:15.895Z,14.20
2023-02-01T09:16:18.199Z,12.10
2023-02-01T09:18:20.459Z,11.23
2023-02-01T09:20:25.731Z,10.07
2023-02-01T09:22:27.969Z,11.13
2023-02-01T09:24:29.964Z,12.40
2023-02-01T09:26:33.129Z,12.53
2023-02-01T09:28:35.791Z,10.77
2023-02-01T09:30:38.789Z,12.40
2023-02-01T09:32:40.940Z,10.20
2023-02-01T09:34:42.974Z,10.27
2023-02-01T09:36:45.475Z,8.90
2023-02-01T09:38:52.761Z,9.67
2023-02-01T09:40:56.501Z,7.17
2023-02-01T09:43:35.816Z,6.60
2023-02-01T09:45:54.220Z,8.20
2023-02-01T09:48:00.626Z,18.23
2023-02-01T09:50:07.743Z,13.40
2023-02-01T09:52:14.071Z,13.20
2023-02-01T09:54:31.078Z,12.83
2023-02-01T09:57:07.685Z,15.30
2023-02-01T09:59:23.175Z,17.60
2023-02-01T10:01:27.796Z,17.37
2023-02-01T10:03:33.034Z,12.27
2023-02-01T10:06:12.315Z,21.07
2023-02-01T10:08:46.764Z,21.07
2023-02-01T10:10:50.645Z,18.00
2023-02-01T10:13:01.422Z,14.87
2023-02-01T10:15:26.954Z,12.90
2023-02-01T10:17:47.065Z,13.53
2023-02-01T10:20:14.560Z,14.60
2023-02-01T10:23:00.329Z,17.50
2023-02-01T10:25:39.629Z,13.93
2023-02-01T10:27:42.809Z,19.50
2023-02-01T10:29:48.980Z,20.77
2023-02-01T10:31:51.785Z,14.63
2023-02-01T10:34:02.075Z,16.73
2023-02-01T10:36:14.820Z,98.77
2023-02-01T10:38:44.266Z,120.03
2023-02-01T10:40:47.457Z,240.47
2023-02-01T10:42:52.620Z,155.87
2023-02-01T10:44:59.119Z,104.97
2023-02-01T10:47:01.089Z,90.83
2023-02-01T10:49:06.039Z,114.30
2023-02-01T10:51:11.770Z,119.13
2023-02-01T10:53:22.954Z,90.73
2023-02-01T10:55:41.985Z,48.50
2023-02-01T10:58:00.881Z,40.40
2023-02-01T11:00:20.441Z,33.70
2023-02-01T11:02:34.111Z,38.47
2023-02-01T11:04:36.980Z,53.00
2023-02-01T11:06:44.869Z,55.60
2023-02-01T11:08:54.015Z,25.17
2023-02-01T11:11:06.920Z,18.17
2023-02-01T11:13:19.592Z,24.83
2023-02-01T11:15:25.717Z,22.80
2023-02-01T11:17:36.050Z,24.10
2023-02-01T11:19:42.354Z,12.17
2023-02-01T11:21:48.853Z,14.80
2023-02-01T11:23:51.173Z,13.60
2023-02-01T11:26:01.799Z,27.93
2023-02-01T11:28:04.315Z,21.03
2023-02-01T11:30:07.776Z,25.47
2023-02-01T11:32:13.448Z,37.13
2023-02-01T11:34:22.343Z,57.00
2023-02-01T11:36:31.167Z,65.23
2023-02-01T11:38:35.216Z,29.57
2023-02-01T11:40:39.067Z,15.37
2023-02-01T11:42:58.733Z,22.53
2023-02-01T11:45:25.373Z,29.07
2023-02-01T11:47:39.817Z,18.80
2023-02-01T11:49:42.067Z,16.03
2023-02-01T11:52:22.255Z,22.63
2023-02-01T11:54:42.048Z,20.23
2023-02-01T11:57:07.739Z,11.00
2023-02-01T11:59:33.980Z,14.63
2023-02-01T12:02:00.040Z,15.00
2023-02-01T12:04:29.462Z,19.90
2023-02-01T12:06:51.037Z,40.47
2023-02-01T12:09:11.361Z,56.43
2023-02-01T12:11:31.627Z,53.43
2023-02-01T12:13:44.356Z,69.37
2023-02-01T12:15:53.380Z,49.57
2023-02-01T12:18:14.225Z,57.13
2023-02-01T12:20:43.468Z,51.50
2023-02-01T12:23:04.771Z,47.83
2023-02-01T12:25:15.874Z,38.30
2023-02-01T12:27:27.156Z,39.53
2023-02-01T12:29:29.228Z,42.63
2023-02-01T12:31:49.707Z,52.10
2023-02-01T12:34:12.617Z,39.43
2023-02-01T12:36:17.485Z,48.23
2023-02-01T12:38:25.633Z,48.37
2023-02-01T12:40:33.660Z,29.00
2023-02-01T12:42:58.456Z,14.40
2023-02-01T12:45:08.283Z,9.53
2023-02-01T12:47:27.430Z,14.13
2023-02-01T12:49:39.800Z,12.10
2023-02-01T12:51:45.661Z,10.30
2023-02-01T12:53:55.736Z,10.00
2023-02-01T12:56:08.494Z,9.60
2023-02-01T12:58:18.357Z,7.73
2023-02-01T13:00:47.249Z,21.67
2023-02-01T13:03:03.612Z,15.00
2023-02-01T13:05:31.114Z,33.23
2023-02-01T13:07:56.941Z,103.17
2023-02-01T13:10:07.142Z,95.07
2023-02-01T13:12:22.531Z,247.90
2023-02-01T13:14:42.209Z,187.87
2023-02-01T13:16:52.206Z,139.13
2023-02-01T13:19:02.177Z,102.00
2023-02-01T13:21:16.134Z,90.13
2023-02-01T13:23:31.701Z,70.40
2023-02-01T13:25:49.022Z,62.00
2023-02-01T13:27:54.545Z,55.00
2023-02-01T13:30:04.553Z,62.67
2023-02-01T13:33:51.509Z,48.63
2023-02-01T13:35:01.951Z,30.80
2023-02-01T13:37:22.675Z,43.73
2023-02-01T13:47:27.315Z,33.23
2023-02-01T13:49:37.633Z,28.73
2023-02-01T13:51:47.313Z,26.10
2023-02-01T13:53:50.348Z,24.30
2023-02-01T13:56:02.121Z,15.77
2023-02-01T13:58:42.967Z,18.70
2023-02-01T14:00:45.658Z,11.97
2023-02-01T14:02:50.990Z,9.23
2023-02-01T14:04:53.187Z,17.30
2023-02-01T14:06:59.023Z,15.40
2023-02-01T14:09:17.988Z,16.67
2023-02-01T14:11:41.495Z,17.73
2023-02-01T14:13:43.833Z,15.37
2023-02-01T14:16:05.980Z,25.07
2023-02-01T14:18:43.105Z,22.67
2023-02-01T14:20:49.320Z,18.03
2023-02-01T14:22:51.456Z,18.60
2023-02-01T14:24:57.220Z,17.73
2023-02-01T14:27:16.719Z,18.30
2023-02-01T14:29:39.405Z,19.27
2023-02-01T14:31:43.677Z,23.97
2023-02-01T14:33:48.895Z,22.70
2023-02-01T14:36:08.767Z,15.07
2023-02-01T14:38:12.555Z,17.60
2023-02-01T14:40:18.136Z,22.00
2023-02-01T14:42:28.019Z,24.30
2023-02-01T14:44:36.729Z,43.73
2023-02-01T14:47:03.538Z,32.83
2023-02-01T14:49:07.754Z,19.57
2023-02-01T14:51:12.662Z,41.90
2023-02-01T14:53:14.673Z,47.63
2023-02-01T14:55:23.385Z,50.90
2023-02-01T14:57:28.081Z,38.53
2023-02-01T14:59:38.113Z,54.87
2023-02-01T15:01:51.329Z,60.63
2023-02-01T15:03:59.138Z,50.80
2023-02-01T15:06:07.129Z,38.33
2023-02-01T15:08:21.832Z,28.93
2023-02-01T15:10:25.289Z,23.37
2023-02-01T15:12:32.862Z,19.30
2023-02-01T15:14:41.434Z,21.97
2023-02-01T15:16:44.583Z,17.43
2023-02-01T15:18:48.907Z,21.07
2023-02-01T15:21:09.798Z,15.67
2023-02-01T15:23:21.117Z,24.97
2023-02-01T15:25:33.807Z,38.20
2023-02-01T15:27:35.906Z,30.10
2023-02-01T15:29:38.334Z,23.90
2023-02-01T15:31:46.796Z,25.90
2023-02-01T15:33:58.895Z,22.77
2023-02-01T15:36:06.961Z,16.23
2023-02-01T15:38:33.156Z,12.87
2023-02-01T15:40:35.248Z,10.00
2023-02-01T15:42:56.959Z,7.17
2023-02-01T15:44:59.067Z,10.00
2023-02-01T15:47:06.688Z,17.27
2023-02-01T15:49:28.265Z,52.63
2023-02-01T15:51:33.763Z,55.43
2023-02-01T15:53:35.833Z,90.83
2023-02-01T15:55:43.768Z,79.67
2023-02-01T15:57:45.850Z,63.83
2023-02-01T15:59:48.614Z,43.27
2023-02-01T16:01:52.364Z,49.80
2023-02-01T16:04:15.287Z,47.57
2023-02-01T16:06:23.283Z,55.40
2023-02-01T16:08:27.438Z,44.33
2023-02-01T16:10:29.625Z,48.73
2023-02-01T16:12:46.954Z,60.27
2023-02-01T16:14:49.833Z,52.30
2023-02-01T16:16:53.335Z,52.07
2023-02-01T16:18:55.688Z,37.17
2023-02-01T16:20:57.741Z,30.83
2023-02-01T16:22:59.779Z,28.87
2023-02-01T16:25:03.100Z,18.33
2023-02-01T16:27:08.190Z,12.10
2023-02-01T16:29:13.284Z,8.13
2023-02-01T16:31:21.810Z,16.80
2023-02-01T16:33:24.633Z,18.40
2023-02-01T16:35:28.520Z,21.37
2023-02-01T16:37:33.513Z,13.43
2023-02-01T16:39:35.610Z,9.80
2023-02-01T16:41:37.586Z,16.50
2023-02-01T16:43:39.885Z,19.10
2023-02-01T16:45:44.932Z,33.97
2023-02-01T16:47:53.789Z,44.37
2023-02-01T16:49:55.854Z,43.50
2023-02-01T16:51:59.837Z,40.43
2023-02-01T16:54:02.969Z,36.30
2023-02-01T16:56:35.048Z,39.60
2023-02-01T16:58:37.192Z,175.07
2023-02-01T17:00:39.766Z,218.83
2023-02-01T17:02:43.202Z,145.13
2023-02-01T17:04:45.309Z,102.27
2023-02-01T17:06:50.002Z,41.07
2023-02-01T17:08:59.181Z,24.73
2023-02-01T17:11:01.584Z,17.60
2023-02-01T17:13:03.859Z,13.33
2023-02-01T17:15:07.269Z,14.00
2023-02-01T17:17:10.621Z,51.70
2023-02-01T17:19:18.993Z,60.70
2023-02-01T17:21:21.332Z,45.23
2023-02-01T17:23:23.673Z,28.00
2023-02-01T17:25:27.328Z,19.60
2023-02-01T17:27:30.426Z,14.30
2023-02-01T17:29:32.417Z,12.20
2023-02-01T17:31:39.014Z,10.33
2023-02-01T17:33:41.113Z,9.00
2023-02-01T17:35:43.062Z,9.07
2023-02-01T17:37:45.056Z,8.90
2023-02-01T17:39:56.820Z,8.80
2023-02-01T17:42:00.274Z,8.37
2023-02-01T17:44:03.168Z,8.07
2023-02-01T17:46:13.801Z,8.77
2023-02-01T17:48:16.175Z,7.67
2023-02-01T17:50:18.649Z,7.57
2023-02-01T17:52:20.967Z,7.00
2023-02-01T17:54:23.448Z,7.83
2023-02-01T17:56:26.558Z,9.00
2023-02-01T17:58:30.705Z,10.50
2023-02-01T18:00:33.155Z,12.07
2023-02-01T18:02:35.280Z,12.13
2023-02-01T18:04:37.908Z,19.83
2023-02-01T18:06:40.194Z,21.40
2023-02-01T18:08:43.177Z,23.40
2023-02-01T18:10:45.331Z,21.33
2023-02-01T18:12:47.651Z,30.67
2023-02-01T18:14:49.830Z,33.90
2023-02-01T18:16:52.174Z,26.50
2023-02-01T18:18:54.542Z,25.63
2023-02-01T18:20:56.907Z,26.00
2023-02-01T18:22:59.459Z,26.37
2023-02-01T18:25:01.531Z,27.10
2023-02-01T18:27:03.707Z,32.70
2023-02-01T18:29:06.527Z,36.33
2023-02-01T18:31:22.409Z,31.73
2023-02-01T18:33:24.764Z,25.60
2023-02-01T18:35:29.979Z,26.23
2023-02-01T18:37:32.353Z,29.73
2023-02-01T18:39:34.298Z,34.77
2023-02-01T18:41:36.926Z,49.73
2023-02-01T18:43:39.208Z,49.57
2023-02-01T18:45:45.681Z,46.20
2023-02-01T18:47:47.940Z,51.90
2023-02-01T18:49:53.340Z,46.57
2023-02-01T18:51:55.185Z,36.83
2023-02-01T18:53:57.419Z,29.83
2023-02-01T18:56:00.344Z,32.87
2023-02-01T18:58:06.729Z,30.23
2023-02-01T19:00:15.563Z,24.73
2023-02-01T19:02:17.719Z,22.57
2023-02-01T19:04:23.543Z,23.23
2023-02-01T19:06:28.259Z,22.50
2023-02-01T19:08:30.574Z,19.47
2023-02-01T19:10:34.067Z,23.27
2023-02-01T19:12:37.126Z,23.47
2023-02-01T19:14:39.604Z,25.57
2023-02-01T19:16:42.475Z,25.40
2023-02-01T19:18:44.879Z,21.57
2023-02-01T19:20:50.827Z,27.30
2023-02-01T19:22:53.513Z,22.40
2023-02-01T19:24:55.809Z,21.17
2023-02-01T19:26:57.963Z,23.57
2023-02-01T19:29:00.770Z,25.77
2023-02-01T19:31:04.846Z,25.07
2023-02-01T19:33:07.239Z,23.77
2023-02-01T19:35:13.327Z,17.83
2023-02-01T19:37:15.629Z,26.93
2023-02-01T19:39:18.019Z,33.17
2023-02-01T19:41:20.942Z,100.30
2023-02-01T19:43:23.540Z,194.63
2023-02-01T19:45:25.985Z,154.17
2023-02-01T19:47:28.510Z,62.20
2023-02-01T19:49:31.156Z,37.73
2023-02-01T19:51:33.550Z,42.40
2023-02-01T19:53:35.663Z,29.77
2023-02-01T19:55:37.837Z,23.17
2023-02-01T19:57:41.660Z,28.03
2023-02-01T19:59:44.028Z,22.87
2023-02-01T20:01:46.899Z,36.37
2023-02-01T20:03:49.585Z,43.53
2023-02-01T20:05:57.154Z,94.40
2023-02-01T20:08:01.102Z,77.53
2023-02-01T20:10:03.755Z,56.67
2023-02-01T20:12:06.095Z,67.77
2023-02-01T20:14:09.436Z,62.37
2023-02-01T20:16:11.698Z,70.13
2023-02-01T20:18:14.019Z,57.53
2023-02-01T20:20:17.160Z,51.67
2023-02-01T20:22:20.036Z,34.20
2023-02-01T20:24:23.766Z,42.60
2023-02-01T20:26:29.246Z,44.47
2023-02-01T20:28:32.192Z,48.60
2023-02-01T20:30:34.542Z,35.47
2023-02-01T20:32:36.623Z,34.23
2023-02-01T20:34:38.935Z,53.37
2023-02-01T20:36:42.852Z,68.20
2023-02-01T20:38:45.296Z,92.10
2023-02-01T20:40:47.354Z,85.90
2023-02-01T20:42:49.583Z,76.23
2023-02-01T20:44:51.858Z,64.47
2023-02-01T20:46:57.035Z,54.17
2023-02-01T20:48:59.049Z,66.90
2023-02-01T20:51:01.401Z,82.03
2023-02-01T20:53:04.438Z,67.73
2023-02-01T20:55:07.307Z,69.50
2023-02-01T20:57:09.298Z,49.30
2023-02-01T20:59:12.781Z,49.67
2023-02-01T21:01:15.709Z,67.80
2023-02-01T21:03:18.007Z,48.93
2023-02-01T21:05:20.358Z,50.33
2023-02-01T21:07:22.777Z,52.67
2023-02-01T21:09:25.624Z,49.67
2023-02-01T21:11:27.625Z,56.00
2023-02-01T21:13:31.923Z,45.67
2023-02-01T21:15:37.407Z,59.37
2023-02-01T21:17:41.151Z,51.27
2023-02-01T21:19:43.658Z,65.57
2023-02-01T21:21:45.815Z,62.27
2023-02-01T21:23:57.468Z,47.40
2023-02-01T21:26:03.242Z,69.50
2023-02-01T21:28:05.557Z,64.77
2023-02-01T21:30:09.109Z,65.80
2023-02-01T21:32:11.465Z,54.30
2023-02-01T21:34:13.834Z,52.13
2023-02-01T21:36:20.196Z,52.67
2023-02-01T21:38:22.470Z,54.87
2023-02-01T21:44:14.786Z,31.03
2023-02-01T21:46:19.740Z,27.23
2023-02-01T21:48:23.851Z,34.13
2023-02-01T21:50:25.926Z,24.80
2023-02-01T21:52:28.124Z,17.23
2023-02-01T21:54:32.038Z,20.53
2023-02-01T21:56:34.087Z,21.33
2023-02-01T21:58:36.293Z,25.03
2023-02-01T22:00:39.768Z,25.50
2023-02-01T22:02:42.210Z,32.57
2023-02-01T22:04:44.980Z,36.03
2023-02-01T22:06:47.403Z,33.30
2023-02-01T22:08:49.447Z,31.40
2023-02-01T22:10:52.023Z,32.97
2023-02-01T22:12:54.206Z,18.67
2023-02-01T22:14:56.590Z,16.80
2023-02-01T22:16:58.755Z,17.80
2023-02-01T22:19:01.383Z,22.13
2023-02-01T22:21:03.552Z,20.00
2023-02-01T22:23:05.587Z,18.97
2023-02-01T22:25:09.729Z,21.40
2023-02-01T22:27:14.115Z,26.53
2023-02-01T22:29:17.650Z,33.27
2023-02-01T22:31:20.602Z,30.23
2023-02-01T22:33:22.821Z,21.20
2023-02-01T22:35:26.845Z,19.70
2023-02-01T22:37:29.204Z,31.50
2023-02-01T22:39:31.644Z,39.77
2023-02-01T22:41:34.007Z,27.40
2023-02-01T22:43:36.896Z,22.90
2023-02-01T22:45:39.492Z,27.23
2023-02-01T22:47:42.219Z,36.13
2023-02-01T22:49:44.992Z,28.97
2023-02-01T22:51:47.312Z,27.17
2023-02-01T22:53:57.246Z,27.20
2023-02-01T22:56:06.886Z,33.13
2023-02-01T22:58:09.140Z,49.17
2023-02-01T23:00:12.256Z,55.60
2023-02-01T23:02:14.304Z,72.63
2023-02-01T23:04:16.680Z,82.57
2023-02-01T23:06:18.966Z,80.17
2023-02-01T23:08:21.350Z,109.37
2023-02-01T23:10:26.176Z,129.10
2023-02-01T23:12:28.442Z,134.20
2023-02-01T23:14:30.729Z,155.57
2023-02-01T23:16:33.175Z,143.17
2023-02-01T23:18:37.066Z,160.73
2023-02-01T23:20:40.786Z,166.47
2023-02-01T23:22:44.863Z,142.97
2023-02-01T23:24:47.018Z,110.20
2023-02-01T23:26:49.299Z,77.70
2023-02-01T23:28:54.339Z,48.23
2023-02-01T23:30:56.964Z,60.23
2023-02-01T23:32:59.403Z,66.50
2023-02-01T23:35:02.541Z,55.53
2023-02-01T23:37:04.575Z,51.73
2023-02-01T23:39:06.984Z,60.43
2023-02-01T23:41:10.758Z,50.77
2023-02-01T23:43:31.403Z,51.37
2023-02-01T23:45:33.547Z,66.03
2023-02-01T23:47:35.697Z,56.03
2023-02-01T23:49:38.020Z,47.90
2023-02-01T23:51:41.601Z,38.57
2023-02-01T23:53:45.069Z,45.77
2023-02-01T23:55:47.224Z,43.10
2023-02-01T23:57:49.225Z,27.67
2023-02-01T23:59:51.979Z,21.83
